Observation data for Snyder on 12/09/2018      Previous  Date  Next       Current Mesonet Observations  Soil Data  Daily Summary Page  Observations in Plain Language
KSYS 090600Z 30002KT M02/M02 A303 RMK A01 T10201021  RH  100%=      5-min Rain = 0
KSYS 090605Z 30002KT M02/M02 A303 RMK A01 T10201021  RH  100%=      5-min Rain = 0
KSYS 090610Z 29002KT M02/M02 A303 RMK A01 T10201021  RH  100%=      5-min Rain = 0
KSYS 090615Z 30002KT M02/M02 A303 RMK A01 T10201021  RH  100%=      5-min Rain = 0
KSYS 090620Z 31002KT M02/M02 A303 RMK A01 T10201021  RH  100%=      5-min Rain = 0
KSYS 090625Z 31002KT M02/M02 A303 RMK A01 T10201021  RH  100%=      5-min Rain = 0
KSYS 090630Z 31002KT M02/M02 A303 RMK A01 T10201021  RH  100%=      5-min Rain = 0
KSYS 090635Z 32002KT M02/M02 A303 RMK A01 T10201021  RH  100%=      5-min Rain = 0
KSYS 090640Z 33002KT M02/M02 A303 RMK A01 T10211022  RH  100%=      5-min Rain = 0
KSYS 090645Z 32002KT M02/M02 A303 RMK A01 T10221023  RH  100%=      5-min Rain = 0
KSYS 090650Z 33002KT M02/M02 A303 RMK A01 T10221023  RH  100%=      5-min Rain = 0
KSYS 090655Z 33002KT M02/M02 A303 RMK A01 T10221023  RH  100%=      5-min Rain = 0
KSYS 090700Z 32002KT M02/M02 A303 RMK A01 T10231024  RH  100%=      5-min Rain = 0
KSYS 090705Z 33002KT M02/M02 A303 RMK A01 T10231024  RH  100%=      5-min Rain = 0
KSYS 090710Z 32002KT M02/M02 A303 RMK A01 T10231024  RH  100%=      5-min Rain = 0
KSYS 090715Z 32002KT M02/M02 A3029 RMK A01 T10221023  RH  100%=      5-min Rain = 0
KSYS 090720Z 33002KT M02/M02 A3029 RMK A01 T10221023  RH  100%=      5-min Rain = 0
KSYS 090725Z 33002KT M02/M02 A303 RMK A01 T10221023  RH  100%=      5-min Rain = 0
KSYS 090730Z 34002KT M02/M02 A303 RMK A01 T10231024  RH  100%=      5-min Rain = 0
KSYS 090735Z 34003KT M02/M02 A3029 RMK A01 T10231024  RH  100%=      5-min Rain = 0
KSYS 090740Z 33003KT M02/M02 A3029 RMK A01 T10231024  RH  100%=      5-min Rain = 0
KSYS 090745Z 33003KT M02/M02 A3029 RMK A01 T10221023  RH  100%=      5-min Rain = 0
KSYS 090750Z 33003KT M02/M02 A3029 RMK A01 T10221023  RH  100%=      5-min Rain = 0
KSYS 090755Z 33003KT M02/M02 A3029 RMK A01 T10221023  RH  100%=      5-min Rain = 0
KSYS 090800Z 34002KT M02/M02 A3029 RMK A01 T10231024  RH  100%=      5-min Rain = 0
KSYS 090805Z 34002KT M02/M03 A3029 RMK A01 T10241025  RH  100%=      5-min Rain = 0
KSYS 090810Z 34002KT M03/M03 A3029 RMK A01 T10251026  RH  100%=      5-min Rain = 0
KSYS 090815Z 34002KT M03/M03 A3029 RMK A01 T10261026  RH  100%=      5-min Rain = 0
KSYS 090820Z 34003KT M03/M03 A3029 RMK A01 T10271028  RH  100%=      5-min Rain = 0
KSYS 090825Z 34003KT M03/M03 A3028 RMK A01 T10271028  RH  100%=      5-min Rain = 0
KSYS 090830Z 34002KT M03/M03 A3028 RMK A01 T10271027  RH  100%=      5-min Rain = 0
KSYS 090835Z 34002KT M03/M03 A3029 RMK A01 T10261027  RH  100%=      5-min Rain = 0
KSYS 090840Z 32002KT M03/M03 A3029 RMK A01 T10261027  RH  100%=      5-min Rain = 0
KSYS 090845Z 32002KT M03/M03 A3029 RMK A01 T10261026  RH  100%=      5-min Rain = 0
KSYS 090850Z 33002KT M03/M03 A3029 RMK A01 T10261027  RH  100%=      5-min Rain = 0
KSYS 090855Z 33002KT M03/M03 A3029 RMK A01 T10271028  RH  100%=      5-min Rain = 0
KSYS 090900Z 34003KT M03/M03 A3029 RMK A01 T10271028  RH  100%=      5-min Rain = 0
KSYS 090905Z 34003KT M03/M03 A3029 RMK A01 T10261027  RH  100%=      5-min Rain = 0
KSYS 090910Z 35003KT M03/M03 A3029 RMK A01 T10251026  RH  100%=      5-min Rain = 0
KSYS 090915Z 35003KT M03/M03 A3029 RMK A01 T10251026  RH  100%=      5-min Rain = 0
KSYS 090920Z 35003KT M03/M03 A3029 RMK A01 T10261027  RH  100%=      5-min Rain = 0
KSYS 090925Z 34003KT M03/M03 A3029 RMK A01 T10261027  RH  100%=      5-min Rain = 0
KSYS 090930Z 34003KT M03/M03 A3029 RMK A01 T10271028  RH  100%=      5-min Rain = 0
KSYS 090935Z 34003KT M03/M03 A3029 RMK A01 T10271028  RH  100%=      5-min Rain = 0
KSYS 090940Z 33002KT M03/M03 A3029 RMK A01 T10261027  RH  100%=      5-min Rain = 0
KSYS 090945Z 34002KT M03/M03 A3029 RMK A01 T10271028  RH  100%=      5-min Rain = 0
KSYS 090950Z 34002KT M03/M03 A303 RMK A01 T10281029  RH  100%=      5-min Rain = 0
KSYS 090955Z 34002KT M03/M03 A303 RMK A01 T10281029  RH  100%=      5-min Rain = 0
KSYS 091000Z 34003KT M03/M03 A3029 RMK A01 T10291030  RH  100%=      5-min Rain = 0
KSYS 091005Z 34003KT M03/M03 A303 RMK A01 T10301030  RH  100%=      5-min Rain = 0
KSYS 091010Z 35003KT M03/M03 A303 RMK A01 T10301031  RH  100%=      5-min Rain = 0
KSYS 091015Z 35003KT M03/M03 A303 RMK A01 T10301031  RH  100%=      5-min Rain = 0
KSYS 091020Z 35003KT M03/M03 A303 RMK A01 T10301031  RH  100%=      5-min Rain = 0
KSYS 091025Z 35003KT M03/M03 A303 RMK A01 T10301031  RH  100%=      5-min Rain = 0
KSYS 091030Z 34003KT M03/M03 A303 RMK A01 T10291030  RH  100%=      5-min Rain = 0
KSYS 091035Z 35004KT M03/M03 A303 RMK A01 T10291030  RH  100%=      5-min Rain = 0
KSYS 091040Z 35004KT M03/M03 A303 RMK A01 T10291030  RH  100%=      5-min Rain = 0
KSYS 091045Z 35004KT M03/M03 A303 RMK A01 T10291030  RH  100%=      5-min Rain = 0
KSYS 091050Z 35004KT M03/M03 A303 RMK A01 T10291029  RH  100%=      5-min Rain = 0
KSYS 091055Z 35004KT M03/M03 A303 RMK A01 T10281029  RH  100%=      5-min Rain = 0
KSYS 091100Z 34004KT M03/M03 A303 RMK A01 T10281029  RH  100%=      5-min Rain = 0
KSYS 091105Z 34004KT M03/M03 A303 RMK A01 T10281029  RH  100%=      5-min Rain = 0
KSYS 091110Z 35004KT M03/M03 A303 RMK A01 T10271028  RH  100%=      5-min Rain = 0
KSYS 091115Z 35004KT M03/M03 A303 RMK A01 T10281029  RH  100%=      5-min Rain = 0
KSYS 091120Z 00004KT M03/M03 A303 RMK A01 T10281029  RH  100%=      5-min Rain = 0
KSYS 091125Z 01004KT M03/M03 A303 RMK A01 T10281029  RH  100%=      5-min Rain = 0
KSYS 091130Z 01004KT M03/M03 A3031 RMK A01 T10291030  RH  100%=      5-min Rain = 0
KSYS 091135Z 01004KT M03/M03 A3031 RMK A01 T10291030  RH  100%=      5-min Rain = 0
KSYS 091140Z 01004KT M03/M03 A3031 RMK A01 T10291030  RH  100%=      5-min Rain = 0
KSYS 091145Z 01004KT M03/M03 A3031 RMK A01 T10291030  RH  100%=      5-min Rain = 0
KSYS 091150Z 01004KT M03/M03 A3031 RMK A01 T10291030  RH  100%=      5-min Rain = 0
KSYS 091155Z 01004KT M03/M03 A3032 RMK A01 T10291030  RH  100%=      5-min Rain = 0
KSYS 091200Z 01004KT M03/M03 A3031 RMK A01 T10301030  RH  100%=      5-min Rain = 0
KSYS 091205Z 01004KT M03/M03 A3031 RMK A01 T10301030  RH  100%=      5-min Rain = 0
KSYS 091210Z 01004KT M03/M03 A3031 RMK A01 T10301031  RH  100%=      5-min Rain = 0
KSYS 091215Z 01004KT M03/M03 A3032 RMK A01 T10311031  RH  100%=      5-min Rain = 0
KSYS 091220Z 00004KT M03/M03 A3032 RMK A01 T10311032  RH  100%=      5-min Rain = 0
KSYS 091225Z 00004KT M03/M03 A3032 RMK A01 T10321033  RH  100%=      5-min Rain = 0
KSYS 091230Z 36004KT M03/M03 A3033 RMK A01 T10321033  RH  100%=      5-min Rain = 0
KSYS 091235Z 00004KT M03/M03 A3033 RMK A01 T10331033  RH  100%=      5-min Rain = 0
KSYS 091240Z 00004KT M03/M03 A3033 RMK A01 T10331034  RH  100%=      5-min Rain = 0
KSYS 091245Z 00004KT M03/M03 A3033 RMK A01 T10341034  RH  100%=      5-min Rain = 0
KSYS 091250Z 00004KT M03/M04 A3033 RMK A01 T10341035  RH  100%=      5-min Rain = 0
KSYS 091255Z 01004KT M04/M04 A3034 RMK A01 T10351036  RH  100%=      5-min Rain = 0
KSYS 091300Z 00004KT M04/M04 A3034 RMK A01 T10351036  RH  100%=      5-min Rain = 0
KSYS 091305Z 00004KT M04/M04 A3034 RMK A01 T10351036  RH  100%=      5-min Rain = 0
KSYS 091310Z 01004KT M04/M04 A3034 RMK A01 T10351036  RH  100%=      5-min Rain = 0
KSYS 091315Z 01004KT M04/M04 A3034 RMK A01 T10351036  RH  100%=      5-min Rain = 0
KSYS 091320Z 00004KT M04/M04 A3034 RMK A01 T10361036  RH  100%=      5-min Rain = 0
KSYS 091325Z 00004KT M04/M04 A3035 RMK A01 T10361036  RH  100%=      5-min Rain = 0
KSYS 091330Z 00004KT M04/M04 A3035 RMK A01 T10361037  RH  100%=      5-min Rain = 0
KSYS 091335Z 00004KT M04/M04 A3035 RMK A01 T10361037  RH  100%=      5-min Rain = 0
KSYS 091340Z 01004KT M04/M04 A3035 RMK A01 T10361037  RH  100%=      5-min Rain = 0
KSYS 091345Z 01004KT M04/M04 A3035 RMK A01 T10371037  RH  100%=      5-min Rain = 0
KSYS 091350Z 00004KT M04/M04 A3035 RMK A01 T10381038  RH  100%=      5-min Rain = 0
KSYS 091355Z 00004KT M04/M04 A3035 RMK A01 T10381039  RH  100%=      5-min Rain = 0
KSYS 091400Z 00004KT M04/M04 A3035 RMK A01 T10381038  RH  100%=      5-min Rain = 0
KSYS 091405Z 36003KT M04/M04 A3036 RMK A01 T10371037  RH  100%=      5-min Rain = 0
KSYS 091410Z 35003KT M04/M04 A3036 RMK A01 T10361037  RH  100%=      5-min Rain = 0
KSYS 091415Z 35003KT M04/M04 A3036 RMK A01 T10351036  RH  100%=      5-min Rain = 0
KSYS 091420Z 35003KT M03/M03 A3036 RMK A01 T10341034  RH  100%=      5-min Rain = 0
KSYS 091425Z 36003KT M03/M03 A3036 RMK A01 T10321033  RH  100%=      5-min Rain = 0
KSYS 091430Z 35003KT M03/M03 A3036 RMK A01 T10301031  RH  100%=      5-min Rain = 0
KSYS 091435Z 35003KT M03/M03 A3036 RMK A01 T10291030  RH  100%=      5-min Rain = 0
KSYS 091440Z 35003KT M03/M03 A3037 RMK A01 T10271028  RH  100%=      5-min Rain = 0
KSYS 091445Z 35003KT M03/M03 A3037 RMK A01 T10251026  RH  100%=      5-min Rain = 0
KSYS 091450Z 35003KT M02/M03 A3037 RMK A01 T10241025  RH  100%=      5-min Rain = 0
KSYS 091455Z 35003KT M02/M02 A3037 RMK A01 T10221023  RH  100%=      5-min Rain = 0
KSYS 091500Z 35003KT M02/M02 A3038 RMK A01 T10211022  RH  100%=      5-min Rain = 0
KSYS 091505Z 34003KT M02/M02 A3038 RMK A01 T10191021  RH  100%=      5-min Rain = 0
KSYS 091510Z 34004KT M02/M02 A3038 RMK A01 T10181021  RH  099%=      5-min Rain = 0
KSYS 091515Z 34004KT M02/M02 A3038 RMK A01 T10171021  RH  098%=      5-min Rain = 0
KSYS 091520Z 34004KT M02/M02 A3038 RMK A01 T10161022  RH  097%=      5-min Rain = 0
KSYS 091525Z 34004KT M02/M02 A3038 RMK A01 T10151022  RH  096%=      5-min Rain = 0
KSYS 091530Z 34004KT M01/M02 A3038 RMK A01 T10141020  RH  096%=      5-min Rain = 0
KSYS 091535Z 34004KT M01/M02 A3039 RMK A01 T10131019  RH  096%=      5-min Rain = 0
KSYS 091540Z 34004KT M01/M02 A3039 RMK A01 T10111018  RH  096%=      5-min Rain = 0
KSYS 091545Z 33004KT M01/M02 A3039 RMK A01 T10101017  RH  096%=      5-min Rain = 0.01
KSYS 091550Z 33003KT M01/M02 A3039 RMK A01 T10091016  RH  096%=      5-min Rain = 0
KSYS 091555Z 33004KT M01/M01 A3039 RMK A01 T10081014  RH  096%=      5-min Rain = 0
KSYS 091600Z 34003KT M01/M01 A304 RMK A01 T10071013  RH  097%=      5-min Rain = 0
KSYS 091605Z 34003KT M01/M01 A304 RMK A01 T10061009  RH  099%=      5-min Rain = 0
KSYS 091610Z 34003KT M01/M01 A304 RMK A01 T10051006  RH  100%=      5-min Rain = 0
KSYS 091615Z 34003KT M00/M00 A304 RMK A01 T10031004  RH  100%=      5-min Rain = 0
KSYS 091620Z 34004KT M00/M00 A304 RMK A01 T10011003  RH  100%=      5-min Rain = 0
KSYS 091625Z 35004KT 00/00 A304 RMK A01 T00020000  RH  100%=      5-min Rain = 0
KSYS 091630Z 35004KT 00/M00 A304 RMK A01 T00011001  RH  100%=      5-min Rain = 0
KSYS 091635Z 36004KT 00/00 A3041 RMK A01 T000100-0  RH  100%=      5-min Rain = 0
KSYS 091640Z 36004KT 00/00 A3041 RMK A01 T00040002  RH  100%=      5-min Rain = 0
KSYS 091645Z 36004KT 01/00 A304 RMK A01 T00060004  RH  100%=      5-min Rain = 0
KSYS 091650Z 01004KT 01/01 A304 RMK A01 T00080005  RH  100%=      5-min Rain = 0
KSYS 091655Z 01005KT 01/00 A304 RMK A01 T00080002  RH  097%=      5-min Rain = 0
KSYS 091700Z 01004KT 01/M00 A304 RMK A01 T00091003  RH  093%=      5-min Rain = 0
KSYS 091705Z 00004KT 01/M00 A304 RMK A01 T00121003  RH  091%=      5-min Rain = 0
KSYS 091710Z 01005KT 01/M01 A304 RMK A01 T00141011  RH  084%=      5-min Rain = 0
KSYS 091715Z 01005KT 02/M02 A304 RMK A01 T00151017  RH  080%=      5-min Rain = 0
KSYS 091720Z 01006KT 02/M02 A304 RMK A01 T00171017  RH  079%=      5-min Rain = 0
KSYS 091725Z 01006KT 02/M02 A304 RMK A01 T00191018  RH  077%=      5-min Rain = 0
KSYS 091730Z 01006KT 02/M02 A304 RMK A01 T00221020  RH  075%=      5-min Rain = 0
KSYS 091735Z 01007KT 02/M03 A304 RMK A01 T00231027  RH  070%=      5-min Rain = 0
KSYS 091740Z 00007KT 02/M03 A304 RMK A01 T00221032  RH  068%=      5-min Rain = 0
KSYS 091745Z 01007KT 02/M03 A304 RMK A01 T00241031  RH  067%=      5-min Rain = 0
KSYS 091750Z 01007KT 03/M03 A3039 RMK A01 T00271031  RH  066%=      5-min Rain = 0
KSYS 091755Z 01005KT 03/M03 A3039 RMK A01 T00281028  RH  067%=      5-min Rain = 0
KSYS 091800Z 01006KT 03/M03 A3039 RMK A01 T00291034  RH  064%=      5-min Rain = 0
KSYS 091805Z 00006KT 03/M04 A3039 RMK A01 T00291037  RH  062%=      5-min Rain = 0
KSYS 091810Z 01006KT 03/M04 A3039 RMK A01 T00311036  RH  062%=      5-min Rain = 0
KSYS 091815Z 00006KT 03/M04 A3038 RMK A01 T00321036  RH  061%=      5-min Rain = 0
KSYS 091820Z 00007KT 03/M04 A3038 RMK A01 T00331041  RH  058%=      5-min Rain = 0
KSYS 091825Z 01007KT 03/M04 A3038 RMK A01 T00341038  RH  060%=      5-min Rain = 0
KSYS 091830Z 01007KT 04/M04 A3037 RMK A01 T00351041  RH  058%=      5-min Rain = 0
KSYS 091835Z 01007KT 04/M04 A3037 RMK A01 T00361039  RH  058%=      5-min Rain = 0
KSYS 091840Z 36007KT 04/M03 A3037 RMK A01 T00401032  RH  060%=      5-min Rain = 0
KSYS 091845Z 36007KT 04/M04 A3037 RMK A01 T00401039  RH  056%=      5-min Rain = 0
KSYS 091850Z 01007KT 04/M04 A3037 RMK A01 T00431035  RH  057%=      5-min Rain = 0
KSYS 091855Z 35008KT 04/M04 A3036 RMK A01 T00431042  RH  054%=      5-min Rain = 0
KSYS 091900Z 35006KT 05/M04 A3036 RMK A01 T00461039  RH  054%=      5-min Rain = 0
KSYS 091905Z 34007KT 05/M04 A3036 RMK A01 T00481039  RH  053%=      5-min Rain = 0
KSYS 091910Z 01007KT 05/M04 A3036 RMK A01 T00471040  RH  054%=      5-min Rain = 0
KSYS 091915Z 01007KT 05/M04 A3036 RMK A01 T00481039  RH  054%=      5-min Rain = 0
KSYS 091920Z 01006KT 05/M04 A3035 RMK A01 T00491037  RH  054%=      5-min Rain = 0
KSYS 091925Z 01005KT 05/M04 A3035 RMK A01 T00481037  RH  054%=      5-min Rain = 0
KSYS 091930Z 00005KT 05/M04 A3035 RMK A01 T00521037  RH  053%=      5-min Rain = 0
KSYS 091935Z 35007KT 05/M04 A3035 RMK A01 T00521042  RH  051%=      5-min Rain = 0
KSYS 091940Z 00005KT 06/M04 A3035 RMK A01 T00551035  RH  053%=      5-min Rain = 0
KSYS 091945Z 01004KT 05/M05 A3035 RMK A01 T00541045  RH  049%=      5-min Rain = 0
KSYS 091950Z 35005KT 05/M04 A3035 RMK A01 T00541044  RH  049%=      5-min Rain = 0
KSYS 091955Z 33005KT 06/M05 A3035 RMK A01 T00581052  RH  045%=      5-min Rain = 0
KSYS 092000Z 00005KT 06/M05 A3035 RMK A01 T00591052  RH  045%=      5-min Rain = 0
KSYS 092005Z 01004KT 06/M05 A3035 RMK A01 T00581051  RH  046%=      5-min Rain = 0
KSYS 092010Z 33005KT 06/M05 A3035 RMK A01 T00601054  RH  044%=      5-min Rain = 0
KSYS 092015Z 33005KT 06/M06 A3035 RMK A01 T00601058  RH  043%=      5-min Rain = 0
KSYS 092020Z 35005KT 06/M05 A3034 RMK A01 T00621053  RH  044%=      5-min Rain = 0
KSYS 092025Z 35005KT 06/M05 A3034 RMK A01 T00631053  RH  043%=      5-min Rain = 0
KSYS 092030Z 34005KT 07/M05 A3034 RMK A01 T00651050  RH  044%=      5-min Rain = 0
KSYS 092035Z 35005G10KT 07/M05 A3034 RMK A01 T00651045  RH  045%=      5-min Rain = 0
KSYS 092040Z 00004KT 07/M04 A3034 RMK A01 T00671041  RH  046%=      5-min Rain = 0
KSYS 092045Z 35004KT 07/M05 A3033 RMK A01 T00671048  RH  044%=      5-min Rain = 0
KSYS 092050Z 01005KT 07/M05 A3033 RMK A01 T00671046  RH  044%=      5-min Rain = 0
KSYS 092055Z 03004KT 07/M06 A3033 RMK A01 T00661055  RH  042%=      5-min Rain = 0
KSYS 092100Z 03003KT 07/M05 A3033 RMK A01 T00651052  RH  043%=      5-min Rain = 0
KSYS 092105Z 02002KT 07/M05 A3033 RMK A01 T00671048  RH  044%=      5-min Rain = 0
KSYS 092110Z 02004KT 07/M04 A3033 RMK A01 T00701044  RH  044%=      5-min Rain = 0
KSYS 092115Z 01003KT 07/M05 A3033 RMK A01 T00691050  RH  043%=      5-min Rain = 0
KSYS 092120Z 01005KT 07/M05 A3033 RMK A01 T00701045  RH  044%=      5-min Rain = 0
KSYS 092125Z 02005KT 07/M04 A3033 RMK A01 T00701044  RH  044%=      5-min Rain = 0
KSYS 092130Z 02005KT 07/M05 A3033 RMK A01 T00701047  RH  043%=      5-min Rain = 0
KSYS 092135Z 01004KT 07/M05 A3033 RMK A01 T00701046  RH  044%=      5-min Rain = 0
KSYS 092140Z 01006KT 07/M05 A3033 RMK A01 T00701046  RH  043%=      5-min Rain = 0
KSYS 092145Z 01007KT 07/M05 A3033 RMK A01 T00701046  RH  043%=      5-min Rain = 0
KSYS 092150Z 01007KT 07/M05 A3033 RMK A01 T00701050  RH  042%=      5-min Rain = 0
KSYS 092155Z 01005KT 07/M05 A3033 RMK A01 T00701048  RH  043%=      5-min Rain = 0
KSYS 092200Z 01004KT 07/M05 A3033 RMK A01 T00711047  RH  043%=      5-min Rain = 0
KSYS 092205Z 00005KT 07/M04 A3033 RMK A01 T00721041  RH  044%=      5-min Rain = 0
KSYS 092210Z 01006KT 07/M05 A3033 RMK A01 T00721046  RH  043%=      5-min Rain = 0
KSYS 092215Z 01004KT 07/M04 A3033 RMK A01 T00711044  RH  044%=      5-min Rain = 0
KSYS 092220Z 00005KT 07/M04 A3033 RMK A01 T00721040  RH  045%=      5-min Rain = 0
KSYS 092225Z 00006KT 07/M04 A3033 RMK A01 T00721043  RH  044%=      5-min Rain = 0
KSYS 092230Z 35004KT 07/M04 A3033 RMK A01 T00711044  RH  044%=      5-min Rain = 0
KSYS 092235Z 36005KT 07/M04 A3033 RMK A01 T00721040  RH  045%=      5-min Rain = 0
KSYS 092240Z 35006KT 07/M04 A3033 RMK A01 T00731042  RH  044%=      5-min Rain = 0
KSYS 092245Z 35007KT 07/M05 A3033 RMK A01 T00711051  RH  042%=      5-min Rain = 0
KSYS 092250Z 35006KT 07/M05 A3034 RMK A01 T00701049  RH  042%=      5-min Rain = 0
KSYS 092255Z 00005KT 07/M04 A3034 RMK A01 T00691042  RH  045%=      5-min Rain = 0
KSYS 092300Z 00006KT 07/M03 A3034 RMK A01 T00671034  RH  048%=      5-min Rain = 0
KSYS 092305Z 00005KT 07/M03 A3034 RMK A01 T00661032  RH  050%=      5-min Rain = 0
KSYS 092310Z 35006KT 06/M04 A3034 RMK A01 T00641036  RH  049%=      5-min Rain = 0
KSYS 092315Z 36005KT 06/M04 A3034 RMK A01 T00631036  RH  050%=      5-min Rain = 0
KSYS 092320Z 00005KT 06/M03 A3034 RMK A01 T00601029  RH  053%=      5-min Rain = 0
KSYS 092325Z 01005KT 06/M03 A3034 RMK A01 T00571026  RH  055%=      5-min Rain = 0
KSYS 092330Z 01005KT 05/M02 A3034 RMK A01 T00541024  RH  058%=      5-min Rain = 0
KSYS 092335Z 01005KT 05/M02 A3034 RMK A01 T00501023  RH  059%=      5-min Rain = 0
KSYS 092340Z 01006KT 05/M02 A3034 RMK A01 T00461024  RH  061%=      5-min Rain = 0
KSYS 092345Z 01006KT 04/M03 A3034 RMK A01 T00431027  RH  061%=      5-min Rain = 0
KSYS 092350Z 01006KT 04/M03 A3034 RMK A01 T00421029  RH  060%=      5-min Rain = 0
KSYS 092355Z 02006KT 04/M03 A3034 RMK A01 T00411028  RH  061%=      5-min Rain = 0
KSYS 100000Z 02006KT 04/M03 A3034 RMK A01 T00401030  RH  061%=      5-min Rain = 0
KSYS 100005Z 02006KT 04/M03 A3035 RMK A01 T00391034  RH  059%=      5-min Rain = 0
KSYS 100010Z 02006KT 04/M03 A3035 RMK A01 T00381031  RH  061%=      5-min Rain = 0
KSYS 100015Z 02006KT 04/M03 A3035 RMK A01 T00371033  RH  061%=      5-min Rain = 0
KSYS 100020Z 02006KT 04/M03 A3035 RMK A01 T00361034  RH  060%=      5-min Rain = 0
KSYS 100025Z 01007KT 04/M04 A3035 RMK A01 T00351035  RH  060%=      5-min Rain = 0
KSYS 100030Z 01007KT 03/M04 A3035 RMK A01 T00341036  RH  060%=      5-min Rain = 0
KSYS 100035Z 02007KT 03/M04 A3036 RMK A01 T00331037  RH  060%=      5-min Rain = 0
KSYS 100040Z 04007KT 03/M03 A3036 RMK A01 T00321033  RH  063%=      5-min Rain = 0
KSYS 100045Z 04007KT 03/M03 A3036 RMK A01 T00291032  RH  065%=      5-min Rain = 0
KSYS 100050Z 04007KT 03/M03 A3036 RMK A01 T00271033  RH  065%=      5-min Rain = 0
KSYS 100055Z 04007KT 03/M03 A3036 RMK A01 T00261034  RH  065%=      5-min Rain = 0
KSYS 100100Z 04007KT 03/M04 A3036 RMK A01 T00251036  RH  064%=      5-min Rain = 0
KSYS 100105Z 03008KT 03/M04 A3036 RMK A01 T00251036  RH  065%=      5-min Rain = 0
KSYS 100110Z 03007KT 02/M03 A3036 RMK A01 T00231034  RH  066%=      5-min Rain = 0
KSYS 100115Z 03007KT 02/M04 A3036 RMK A01 T00231035  RH  066%=      5-min Rain = 0
KSYS 100120Z 03007KT 02/M04 A3036 RMK A01 T00221037  RH  066%=      5-min Rain = 0
KSYS 100125Z 03006KT 02/M04 A3036 RMK A01 T00211039  RH  065%=      5-min Rain = 0
KSYS 100130Z 03007KT 02/M04 A3036 RMK A01 T00211042  RH  063%=      5-min Rain = 0
KSYS 100135Z 03007KT 02/M04 A3036 RMK A01 T00201043  RH  063%=      5-min Rain = 0
KSYS 100140Z 03006KT 02/M04 A3036 RMK A01 T00201044  RH  063%=      5-min Rain = 0
KSYS 100145Z 03007KT 02/M05 A3036 RMK A01 T00201048  RH  061%=      5-min Rain = 0
KSYS 100150Z 03007KT 02/M05 A3036 RMK A01 T00201048  RH  061%=      5-min Rain = 0
KSYS 100155Z 03007KT 02/M05 A3036 RMK A01 T00201048  RH  061%=      5-min Rain = 0
KSYS 100200Z 03006KT 02/M05 A3036 RMK A01 T00201051  RH  059%=      5-min Rain = 0
KSYS 100205Z 03007KT 02/M05 A3037 RMK A01 T00201050  RH  060%=      5-min Rain = 0
KSYS 100210Z 03007KT 02/M05 A3037 RMK A01 T00191051  RH  060%=      5-min Rain = 0
KSYS 100215Z 03006KT 02/M05 A3036 RMK A01 T00191053  RH  059%=      5-min Rain = 0
KSYS 100220Z 03006KT 02/M05 A3036 RMK A01 T00191054  RH  059%=      5-min Rain = 0
KSYS 100225Z 03006KT 02/M06 A3036 RMK A01 T00191055  RH  058%=      5-min Rain = 0
KSYS 100230Z 02007KT 02/M05 A3037 RMK A01 T00191054  RH  059%=      5-min Rain = 0
KSYS 100235Z 02007KT 02/M05 A3037 RMK A01 T00201054  RH  058%=      5-min Rain = 0
KSYS 100240Z 01008KT 02/M05 A3037 RMK A01 T00201052  RH  059%=      5-min Rain = 0
KSYS 100245Z 00007KT 02/M05 A3037 RMK A01 T00181050  RH  061%=      5-min Rain = 0
KSYS 100250Z 36007KT 02/M05 A3037 RMK A01 T00161048  RH  063%=      5-min Rain = 0
KSYS 100255Z 35007KT 01/M05 A3037 RMK A01 T00141047  RH  064%=      5-min Rain = 0
KSYS 100300Z 36006KT 01/M05 A3037 RMK A01 T00131046  RH  065%=      5-min Rain = 0
KSYS 100305Z 36006KT 01/M04 A3037 RMK A01 T00121044  RH  066%=      5-min Rain = 0
KSYS 100310Z 00006KT 01/M04 A3037 RMK A01 T00111043  RH  067%=      5-min Rain = 0
KSYS 100315Z 00007KT 01/M04 A3037 RMK A01 T00101042  RH  069%=      5-min Rain = 0
KSYS 100320Z 00007KT 01/M04 A3038 RMK A01 T00091041  RH  069%=      5-min Rain = 0
KSYS 100325Z 36005KT 01/M04 A3037 RMK A01 T00081041  RH  070%=      5-min Rain = 0
KSYS 100330Z 36005KT 01/M04 A3038 RMK A01 T00071040  RH  071%=      5-min Rain = 0
KSYS 100335Z 36006KT 01/M04 A3038 RMK A01 T00061038  RH  073%=      5-min Rain = 0
KSYS 100340Z 36005KT 00/M04 A3038 RMK A01 T00041037  RH  075%=      5-min Rain = 0
KSYS 100345Z 35005KT 00/M04 A3038 RMK A01 T00021036  RH  076%=      5-min Rain = 0
KSYS 100350Z 35004KT 00/04 A3038 RMK A01 T00000-35  RH  078%=      5-min Rain = 0
KSYS 100355Z 35004KT M00/M03 A3038 RMK A01 T10011034  RH  079%=      5-min Rain = 0
KSYS 100400Z 35004KT 00/03 A3038 RMK A01 T00-00-33  RH  079%=      5-min Rain = 0
KSYS 100405Z 36005KT 00/M03 A3038 RMK A01 T00011032  RH  079%=      5-min Rain = 0
KSYS 100410Z 35005KT 00/M03 A3038 RMK A01 T00021032  RH  078%=      5-min Rain = 0
KSYS 100415Z 34003KT 00/M03 A3038 RMK A01 T00021032  RH  079%=      5-min Rain = 0
KSYS 100420Z 33003KT 00/M03 A3037 RMK A01 T00011032  RH  079%=      5-min Rain = 0
KSYS 100425Z 32003KT 00/M03 A3037 RMK A01 T00011032  RH  079%=      5-min Rain = 0
KSYS 100430Z 31004KT 00/M03 A3037 RMK A01 T00011033  RH  078%=      5-min Rain = 0
KSYS 100435Z 32004KT M00/M04 A3038 RMK A01 T10011035  RH  078%=      5-min Rain = 0
KSYS 100440Z 33003KT M00/M04 A3038 RMK A01 T10041037  RH  079%=      5-min Rain = 0
KSYS 100445Z 33002KT M01/M04 A3038 RMK A01 T10061035  RH  081%=      5-min Rain = 0
KSYS 100450Z 31003KT M01/M03 A3038 RMK A01 T10061034  RH  082%=      5-min Rain = 0
KSYS 100455Z 29003KT M01/M03 A3037 RMK A01 T10071033  RH  083%=      5-min Rain = 0
KSYS 100500Z 29004KT M01/M03 A3037 RMK A01 T10051031  RH  084%=      5-min Rain = 0
KSYS 100505Z 30004KT M00/M03 A3037 RMK A01 T10031030  RH  082%=      5-min Rain = 0
KSYS 100510Z 29004KT M00/M03 A3037 RMK A01 T10031030  RH  082%=      5-min Rain = 0
KSYS 100515Z 30004KT M00/M03 A3037 RMK A01 T10041030  RH  083%=      5-min Rain = 0
KSYS 100520Z 31003KT M01/M03 A3038 RMK A01 T10061031  RH  084%=      5-min Rain = 0
KSYS 100525Z 30004KT M01/M03 A3038 RMK A01 T10081030  RH  085%=      5-min Rain = 0
KSYS 100530Z 32004KT M01/M03 A3038 RMK A01 T10091030  RH  087%=      5-min Rain = 0
KSYS 100535Z 33004KT M01/M03 A3038 RMK A01 T10101028  RH  088%=      5-min Rain = 0
KSYS 100540Z 33005KT M01/M03 A3038 RMK A01 T10101027  RH  088%=      5-min Rain = 0
KSYS 100545Z 33005KT M01/M03 A3038 RMK A01 T10081026  RH  088%=      5-min Rain = 0
KSYS 100550Z 33005KT M01/M03 A3038 RMK A01 T10061026  RH  087%=      5-min Rain = 0
KSYS 100555Z 32004KT M01/M03 A3038 RMK A01 T10051026  RH  087%=      5-min Rain = 0

Page generated in 0.0301 seconds.